sensor_id;sensor_type;location;lat;lon;timestamp;pressure;altitude;pressure_sealevel;temperature;humidity
3917;BME280;1973;50.518;7.318;2023-07-13T00:00:47;100868.47;;;19.48;65.67
3917;BME280;1973;50.518;7.318;2023-07-13T00:03:13;100875.44;;;19.40;66.48
3917;BME280;1973;50.518;7.318;2023-07-13T00:05:40;100874.56;;;19.34;67.52
3917;BME280;1973;50.518;7.318;2023-07-13T00:08:07;100868.63;;;19.26;68.66
3917;BME280;1973;50.518;7.318;2023-07-13T00:10:40;100878.94;;;19.20;70.19
3917;BME280;1973;50.518;7.318;2023-07-13T00:13:08;100880.84;;;19.10;70.84
3917;BME280;1973;50.518;7.318;2023-07-13T00:15:34;100875.19;;;19.00;71.91
3917;BME280;1973;50.518;7.318;2023-07-13T00:18:02;100876.50;;;18.92;72.10
3917;BME280;1973;50.518;7.318;2023-07-13T00:20:28;100875.91;;;18.85;72.62
3917;BME280;1973;50.518;7.318;2023-07-13T00:22:55;100880.63;;;18.79;72.91
3917;BME280;1973;50.518;7.318;2023-07-13T00:25:23;100866.63;;;18.74;73.22
3917;BME280;1973;50.518;7.318;2023-07-13T00:27:55;100868.28;;;18.70;73.50
3917;BME280;1973;50.518;7.318;2023-07-13T00:30:22;100873.84;;;18.65;73.81
3917;BME280;1973;50.518;7.318;2023-07-13T00:32:48;100874.88;;;18.59;74.27
3917;BME280;1973;50.518;7.318;2023-07-13T00:35:25;100871.22;;;18.54;74.74
3917;BME280;1973;50.518;7.318;2023-07-13T00:37:52;100866.69;;;18.47;75.15
3917;BME280;1973;50.518;7.318;2023-07-13T00:40:18;100870.28;;;18.43;75.90
3917;BME280;1973;50.518;7.318;2023-07-13T00:42:45;100865.75;;;18.37;75.77
3917;BME280;1973;50.518;7.318;2023-07-13T00:47:39;100872.00;;;18.22;77.88
3917;BME280;1973;50.518;7.318;2023-07-13T00:50:10;100866.66;;;18.16;78.35
3917;BME280;1973;50.518;7.318;2023-07-13T00:52:41;100873.56;;;18.08;79.17
3917;BME280;1973;50.518;7.318;2023-07-13T00:55:11;100867.66;;;18.05;79.88
3917;BME280;1973;50.518;7.318;2023-07-13T00:57:40;100874.34;;;18.04;79.66
3917;BME280;1973;50.518;7.318;2023-07-13T01:00:08;100878.50;;;18.01;79.57
3917;BME280;1973;50.518;7.318;2023-07-13T01:02:38;100875.66;;;17.96;80.17
3917;BME280;1973;50.518;7.318;2023-07-13T01:05:12;100877.00;;;17.88;81.41
3917;BME280;1973;50.518;7.318;2023-07-13T01:07:42;100881.41;;;17.84;81.04
3917;BME280;1973;50.518;7.318;2023-07-13T01:12:45;100880.16;;;17.75;81.75
3917;BME280;1973;50.518;7.318;2023-07-13T01:18:00;100889.50;;;17.64;82.90
3917;BME280;1973;50.518;7.318;2023-07-13T01:20:27;100882.44;;;17.57;83.71
3917;BME280;1973;50.518;7.318;2023-07-13T01:22:54;100895.16;;;17.52;84.08
3917;BME280;1973;50.518;7.318;2023-07-13T01:25:21;100893.75;;;17.50;84.38
3917;BME280;1973;50.518;7.318;2023-07-13T01:27:47;100887.88;;;17.46;84.88
3917;BME280;1973;50.518;7.318;2023-07-13T01:30:14;100888.06;;;17.40;85.05
3917;BME280;1973;50.518;7.318;2023-07-13T01:32:41;100887.47;;;17.38;85.77
3917;BME280;1973;50.518;7.318;2023-07-13T01:35:08;100900.22;;;17.34;86.13
3917;BME280;1973;50.518;7.318;2023-07-13T01:37:34;100885.41;;;17.28;86.47
3917;BME280;1973;50.518;7.318;2023-07-13T01:40:03;100890.13;;;17.28;86.61
3917;BME280;1973;50.518;7.318;2023-07-13T01:42:30;100883.91;;;17.21;87.30
3917;BME280;1973;50.518;7.318;2023-07-13T01:44:57;100885.75;;;17.15;87.90
3917;BME280;1973;50.518;7.318;2023-07-13T01:47:23;100888.22;;;17.12;87.92
3917;BME280;1973;50.518;7.318;2023-07-13T01:49:52;100896.50;;;17.07;88.50
3917;BME280;1973;50.518;7.318;2023-07-13T01:52:19;100895.91;;;17.04;88.55
3917;BME280;1973;50.518;7.318;2023-07-13T01:54:45;100883.94;;;17.04;88.30
3917;BME280;1973;50.518;7.318;2023-07-13T01:57:12;100879.97;;;17.00;89.08
3917;BME280;1973;50.518;7.318;2023-07-13T01:59:38;100890.38;;;16.88;90.49
3917;BME280;1973;50.518;7.318;2023-07-13T02:02:05;100888.69;;;16.87;89.96
3917;BME280;1973;50.518;7.318;2023-07-13T02:04:32;100887.84;;;16.86;90.40
3917;BME280;1973;50.518;7.318;2023-07-13T02:06:58;100891.13;;;16.83;90.97
3917;BME280;1973;50.518;7.318;2023-07-13T02:09:25;100889.72;;;16.81;90.88
3917;BME280;1973;50.518;7.318;2023-07-13T02:11:51;100894.09;;;16.77;91.60
3917;BME280;1973;50.518;7.318;2023-07-13T02:14:18;100888.22;;;16.73;91.70
3917;BME280;1973;50.518;7.318;2023-07-13T02:16:45;100883.91;;;16.66;92.69
3917;BME280;1973;50.518;7.318;2023-07-13T02:19:11;100894.44;;;16.64;93.03
3917;BME280;1973;50.518;7.318;2023-07-13T02:21:38;100899.13;;;16.63;93.14
3917;BME280;1973;50.518;7.318;2023-07-13T02:24:04;100894.38;;;16.59;94.00
3917;BME280;1973;50.518;7.318;2023-07-13T02:26:31;100899.47;;;16.50;94.56
3917;BME280;1973;50.518;7.318;2023-07-13T02:28:57;100897.75;;;16.49;94.69
3917;BME280;1973;50.518;7.318;2023-07-13T02:31:24;100892.72;;;16.46;95.19
3917;BME280;1973;50.518;7.318;2023-07-13T02:33:51;100892.38;;;16.42;95.67
3917;BME280;1973;50.518;7.318;2023-07-13T02:36:17;100900.94;;;16.41;95.76
3917;BME280;1973;50.518;7.318;2023-07-13T02:38:45;100905.94;;;16.39;96.00
3917;BME280;1973;50.518;7.318;2023-07-13T02:41:11;100913.94;;;16.35;96.46
3917;BME280;1973;50.518;7.318;2023-07-13T02:43:39;100908.03;;;16.32;96.61
3917;BME280;1973;50.518;7.318;2023-07-13T02:46:06;100914.44;;;16.32;97.33
3917;BME280;1973;50.518;7.318;2023-07-13T02:48:37;100899.69;;;16.32;96.84
3917;BME280;1973;50.518;7.318;2023-07-13T02:51:04;100909.53;;;16.23;98.11
3917;BME280;1973;50.518;7.318;2023-07-13T02:53:31;100908.69;;;16.22;97.85
3917;BME280;1973;50.518;7.318;2023-07-13T02:55:58;100902.78;;;16.19;98.63
3917;BME280;1973;50.518;7.318;2023-07-13T02:58:25;100904.75;;;16.18;98.23
3917;BME280;1973;50.518;7.318;2023-07-13T03:00:52;100906.56;;;16.13;99.01
3917;BME280;1973;50.518;7.318;2023-07-13T03:03:19;100914.91;;;16.13;99.49
3917;BME280;1973;50.518;7.318;2023-07-13T03:05:45;100908.50;;;16.12;99.29
3917;BME280;1973;50.518;7.318;2023-07-13T03:08:16;100912.97;;;16.13;98.98
3917;BME280;1973;50.518;7.318;2023-07-13T03:10:44;100908.50;;;16.12;99.44
3917;BME280;1973;50.518;7.318;2023-07-13T03:13:11;100908.84;;;16.16;99.62
3917;BME280;1973;50.518;7.318;2023-07-13T03:15:38;100912.22;;;16.18;99.54
3917;BME280;1973;50.518;7.318;2023-07-13T03:18:04;100912.22;;;16.18;99.62
3917;BME280;1973;50.518;7.318;2023-07-13T03:20:33;100915.00;;;16.18;99.75
3917;BME280;1973;50.518;7.318;2023-07-13T03:23:00;100920.28;;;16.19;99.46
3917;BME280;1973;50.518;7.318;2023-07-13T03:25:27;100924.53;;;16.22;99.50
3917;BME280;1973;50.518;7.318;2023-07-13T03:27:53;100926.19;;;16.23;99.85
3917;BME280;1973;50.518;7.318;2023-07-13T03:30:20;100922.56;;;16.22;100.00
3917;BME280;1973;50.518;7.318;2023-07-13T03:32:46;100928.97;;;16.23;100.00
3917;BME280;1973;50.518;7.318;2023-07-13T03:35:13;100923.69;;;16.21;100.00
3917;BME280;1973;50.518;7.318;2023-07-13T03:37:39;100927.53;;;16.20;100.00
3917;BME280;1973;50.518;7.318;2023-07-13T03:40:09;100926.69;;;16.20;100.00
3917;BME280;1973;50.518;7.318;2023-07-13T03:42:36;100937.22;;;16.18;100.00
3917;BME280;1973;50.518;7.318;2023-07-13T03:45:03;100943.28;;;16.15;100.00
3917;BME280;1973;50.518;7.318;2023-07-13T03:47:30;100942.19;;;16.16;100.00
3917;BME280;1973;50.518;7.318;2023-07-13T03:49:57;100948.56;;;16.16;100.00
3917;BME280;1973;50.518;7.318;2023-07-13T03:52:23;100948.22;;;16.13;100.00
3917;BME280;1973;50.518;7.318;2023-07-13T03:54:50;100939.91;;;16.13;100.00
3917;BME280;1973;50.518;7.318;2023-07-13T03:57:16;100942.94;;;16.11;100.00
3917;BME280;1973;50.518;7.318;2023-07-13T03:59:43;100951.50;;;16.10;100.00
3917;BME280;1973;50.518;7.318;2023-07-13T04:02:10;100957.31;;;16.08;100.00
3917;BME280;1973;50.518;7.318;2023-07-13T04:04:37;100950.91;;;16.07;100.00
3917;BME280;1973;50.518;7.318;2023-07-13T04:07:06;100950.66;;;16.09;100.00
3917;BME280;1973;50.518;7.318;2023-07-13T04:09:35;100940.97;;;16.12;100.00
3917;BME280;1973;50.518;7.318;2023-07-13T04:12:02;100940.50;;;16.15;100.00
3917;BME280;1973;50.518;7.318;2023-07-13T04:14:29;100956.69;;;16.18;100.00
3917;BME280;1973;50.518;7.318;2023-07-13T04:16:56;100952.88;;;16.24;100.00
3917;BME280;1973;50.518;7.318;2023-07-13T04:19:23;100955.16;;;16.27;100.00
3917;BME280;1973;50.518;7.318;2023-07-13T04:21:49;100959.63;;;16.28;100.00
3917;BME280;1973;50.518;7.318;2023-07-13T04:24:16;100958.06;;;16.32;100.00
3917;BME280;1973;50.518;7.318;2023-07-13T04:26:42;100965.31;;;16.33;100.00
3917;BME280;1973;50.518;7.318;2023-07-13T04:29:09;100960.94;;;16.37;100.00
3917;BME280;1973;50.518;7.318;2023-07-13T04:31:36;100962.69;;;16.43;100.00
3917;BME280;1973;50.518;7.318;2023-07-13T04:34:02;100967.75;;;16.46;100.00
3917;BME280;1973;50.518;7.318;2023-07-13T04:36:29;100968.09;;;16.49;100.00
3917;BME280;1973;50.518;7.318;2023-07-13T04:38:56;100971.81;;;16.55;100.00
3917;BME280;1973;50.518;7.318;2023-07-13T04:41:22;100961.09;;;16.59;100.00
3917;BME280;1973;50.518;7.318;2023-07-13T04:43:49;100970.00;;;16.61;100.00
3917;BME280;1973;50.518;7.318;2023-07-13T04:46:17;100971.44;;;16.63;100.00
3917;BME280;1973;50.518;7.318;2023-07-13T04:48:48;100973.38;;;16.63;100.00
3917;BME280;1973;50.518;7.318;2023-07-13T04:51:15;100974.81;;;16.65;100.00
3917;BME280;1973;50.518;7.318;2023-07-13T04:53:42;100975.16;;;16.69;100.00
3917;BME280;1973;50.518;7.318;2023-07-13T04:56:09;100970.44;;;16.69;100.00
3917;BME280;1973;50.518;7.318;2023-07-13T04:58:36;100973.56;;;16.73;100.00
3917;BME280;1973;50.518;7.318;2023-07-13T05:01:04;100987.53;;;16.78;100.00
3917;BME280;1973;50.518;7.318;2023-07-13T05:03:32;100977.84;;;16.80;100.00
3917;BME280;1973;50.518;7.318;2023-07-13T05:06:02;100988.47;;;16.83;100.00
3917;BME280;1973;50.518;7.318;2023-07-13T05:08:30;100985.78;;;16.88;100.00
3917;BME280;1973;50.518;7.318;2023-07-13T05:10:59;100982.56;;;16.96;100.00
3917;BME280;1973;50.518;7.318;2023-07-13T05:13:27;100984.06;;;17.04;100.00
3917;BME280;1973;50.518;7.318;2023-07-13T05:16:04;100983.41;;;17.14;100.00
3917;BME280;1973;50.518;7.318;2023-07-13T05:18:30;100984.06;;;17.21;100.00
3917;BME280;1973;50.518;7.318;2023-07-13T05:21:05;100983.38;;;17.30;100.00
3917;BME280;1973;50.518;7.318;2023-07-13T05:23:33;100979.91;;;17.40;100.00
3917;BME280;1973;50.518;7.318;2023-07-13T05:26:00;100974.72;;;17.48;100.00
3917;BME280;1973;50.518;7.318;2023-07-13T05:28:27;100979.91;;;17.57;100.00
3917;BME280;1973;50.518;7.318;2023-07-13T05:30:55;100983.09;;;17.65;100.00
3917;BME280;1973;50.518;7.318;2023-07-13T05:33:23;100986.25;;;17.74;100.00
3917;BME280;1973;50.518;7.318;2023-07-13T05:35:50;100993.31;;;17.81;100.00
3917;BME280;1973;50.518;7.318;2023-07-13T05:38:17;100990.69;;;17.91;100.00
3917;BME280;1973;50.518;7.318;2023-07-13T05:40:44;100991.38;;;18.04;99.87
3917;BME280;1973;50.518;7.318;2023-07-13T05:43:11;100990.38;;;18.15;99.35
3917;BME280;1973;50.518;7.318;2023-07-13T05:45:38;100991.38;;;18.25;99.11
3917;BME280;1973;50.518;7.318;2023-07-13T05:48:05;100990.63;;;18.35;97.70
3917;BME280;1973;50.518;7.318;2023-07-13T05:50:32;100994.13;;;18.47;96.12
3917;BME280;1973;50.518;7.318;2023-07-13T05:52:58;100983.63;;;18.54;95.41
3917;BME280;1973;50.518;7.318;2023-07-13T05:55:25;100993.72;;;18.60;93.49
3917;BME280;1973;50.518;7.318;2023-07-13T05:57:52;100993.78;;;18.65;92.58
3917;BME280;1973;50.518;7.318;2023-07-13T06:00:18;101005.25;;;18.69;91.45
3917;BME280;1973;50.518;7.318;2023-07-13T06:02:45;101016.13;;;18.70;90.12
3917;BME280;1973;50.518;7.318;2023-07-13T06:05:12;101015.03;;;18.71;89.88
3917;BME280;1973;50.518;7.318;2023-07-13T06:07:39;101013.38;;;18.75;89.81
3917;BME280;1973;50.518;7.318;2023-07-13T06:10:05;101011.47;;;18.81;89.44
3917;BME280;1973;50.518;7.318;2023-07-13T06:12:32;101011.81;;;18.84;88.78
3917;BME280;1973;50.518;7.318;2023-07-13T06:14:59;101009.06;;;18.89;88.89
3917;BME280;1973;50.518;7.318;2023-07-13T06:17:25;101016.94;;;18.98;89.45
3917;BME280;1973;50.518;7.318;2023-07-13T06:19:52;101018.97;;;19.07;88.76
3917;BME280;1973;50.518;7.318;2023-07-13T06:22:19;101007.63;;;19.19;87.96
3917;BME280;1973;50.518;7.318;2023-07-13T06:24:45;101007.13;;;19.27;86.13
3917;BME280;1973;50.518;7.318;2023-07-13T06:27:12;100996.31;;;19.35;85.92
3917;BME280;1973;50.518;7.318;2023-07-13T06:29:38;101012.31;;;19.45;86.37
3917;BME280;1973;50.518;7.318;2023-07-13T06:32:06;101011.22;;;19.51;84.99
3917;BME280;1973;50.518;7.318;2023-07-13T06:34:33;101004.28;;;19.59;83.14
3917;BME280;1973;50.518;7.318;2023-07-13T06:36:59;101006.88;;;19.65;82.62
3917;BME280;1973;50.518;7.318;2023-07-13T06:39:26;101005.78;;;19.71;82.49
3917;BME280;1973;50.518;7.318;2023-07-13T06:41:53;101009.44;;;19.77;82.12
3917;BME280;1973;50.518;7.318;2023-07-13T06:44:19;101009.19;;;19.83;81.31
3917;BME280;1973;50.518;7.318;2023-07-13T06:46:46;100999.88;;;20.25;76.02
3917;BME280;1973;50.518;7.318;2023-07-13T06:49:12;101014.38;;;20.17;76.13
3917;BME280;1973;50.518;7.318;2023-07-13T06:51:39;101011.00;;;20.15;76.26
3917;BME280;1973;50.518;7.318;2023-07-13T06:54:05;101015.75;;;20.14;75.24
3917;BME280;1973;50.518;7.318;2023-07-13T06:56:32;101014.38;;;20.17;74.40
3917;BME280;1973;50.518;7.318;2023-07-13T06:58:58;101014.94;;;20.19;73.58
3917;BME280;1973;50.518;7.318;2023-07-13T07:01:25;101012.41;;;20.12;72.62
3917;BME280;1973;50.518;7.318;2023-07-13T07:03:52;101022.75;;;20.12;71.99
3917;BME280;1973;50.518;7.318;2023-07-13T07:06:22;101012.13;;;20.19;71.95
3917;BME280;1973;50.518;7.318;2023-07-13T07:08:52;101012.16;;;20.24;72.23
3917;BME280;1973;50.518;7.318;2023-07-13T07:11:21;101012.72;;;20.21;70.71
3917;BME280;1973;50.518;7.318;2023-07-13T07:13:50;101008.78;;;20.22;70.91
3917;BME280;1973;50.518;7.318;2023-07-13T07:16:17;101004.06;;;20.27;70.48
3917;BME280;1973;50.518;7.318;2023-07-13T07:18:44;101011.13;;;20.35;70.94
3917;BME280;1973;50.518;7.318;2023-07-13T07:21:11;101007.78;;;20.43;70.49
3917;BME280;1973;50.518;7.318;2023-07-13T07:23:38;101006.69;;;20.49;70.19
3917;BME280;1973;50.518;7.318;2023-07-13T07:26:05;101004.19;;;20.58;69.42
3917;BME280;1973;50.518;7.318;2023-07-13T07:28:32;101005.03;;;20.63;68.90
3917;BME280;1973;50.518;7.318;2023-07-13T07:31:01;101008.94;;;20.62;68.32
3917;BME280;1973;50.518;7.318;2023-07-13T07:33:32;101013.69;;;20.67;67.20
3917;BME280;1973;50.518;7.318;2023-07-13T07:35:59;101009.50;;;20.74;67.05
3917;BME280;1973;50.518;7.318;2023-07-13T07:38:29;100998.88;;;20.81;66.63
3917;BME280;1973;50.518;7.318;2023-07-13T07:40:55;101000.56;;;20.82;65.30
3917;BME280;1973;50.518;7.318;2023-07-13T07:45:51;100998.91;;;20.97;65.10
3917;BME280;1973;50.518;7.318;2023-07-13T07:48:17;100995.00;;;20.98;64.40
3917;BME280;1973;50.518;7.318;2023-07-13T07:50:44;100992.19;;;21.08;63.06
3917;BME280;1973;50.518;7.318;2023-07-13T07:53:11;100986.63;;;21.13;61.05
3917;BME280;1973;50.518;7.318;2023-07-13T07:55:37;100980.97;;;21.08;60.53
3917;BME280;1973;50.518;7.318;2023-07-13T07:58:24;100994.16;;;21.22;59.66
3917;BME280;1973;50.518;7.318;2023-07-13T08:00:54;100991.09;;;21.24;58.48
3917;BME280;1973;50.518;7.318;2023-07-13T08:03:23;101004.53;;;21.32;57.44
3917;BME280;1973;50.518;7.318;2023-07-13T08:05:53;100984.31;;;21.40;56.43
3917;BME280;1973;50.518;7.318;2023-07-13T08:08:23;100978.16;;;21.53;55.76
3917;BME280;1973;50.518;7.318;2023-07-13T08:10:50;100993.81;;;21.64;55.03
3917;BME280;1973;50.518;7.318;2023-07-13T08:13:16;100979.78;;;21.69;55.27
3917;BME280;1973;50.518;7.318;2023-07-13T08:15:44;100975.84;;;21.75;55.18
3917;BME280;1973;50.518;7.318;2023-07-13T08:18:11;100979.44;;;21.81;55.22
3917;BME280;1973;50.518;7.318;2023-07-13T08:20:38;100973.88;;;21.91;54.87
3917;BME280;1973;50.518;7.318;2023-07-13T08:23:07;100973.50;;;22.03;54.13
3917;BME280;1973;50.518;7.318;2023-07-13T08:25:35;100977.94;;;22.14;54.62
3917;BME280;1973;50.518;7.318;2023-07-13T08:28:03;100978.47;;;22.21;53.62
3917;BME280;1973;50.518;7.318;2023-07-13T08:30:30;100985.19;;;22.25;53.32
3917;BME280;1973;50.518;7.318;2023-07-13T08:32:57;100976.22;;;22.28;52.80
3917;BME280;1973;50.518;7.318;2023-07-13T08:35:23;100975.88;;;22.35;53.32
3917;BME280;1973;50.518;7.318;2023-07-13T08:37:52;100973.59;;;22.42;53.03
3917;BME280;1973;50.518;7.318;2023-07-13T08:40:19;100962.88;;;22.49;52.83
3917;BME280;1973;50.518;7.318;2023-07-13T08:42:55;100968.47;;;22.54;51.74
3917;BME280;1973;50.518;7.318;2023-07-13T08:48:13;100972.88;;;22.65;51.54
3917;BME280;1973;50.518;7.318;2023-07-13T08:51:04;100974.28;;;22.72;50.84
3917;BME280;1973;50.518;7.318;2023-07-13T08:53:38;100959.38;;;22.72;51.01
3917;BME280;1973;50.518;7.318;2023-07-13T08:56:11;100947.50;;;22.80;50.05
3917;BME280;1973;50.518;7.318;2023-07-13T08:58:42;100960.34;;;22.91;50.32
3917;BME280;1973;50.518;7.318;2023-07-13T09:01:51;100951.84;;;23.01;48.06
3917;BME280;1973;50.518;7.318;2023-07-13T09:04:37;100943.06;;;23.08;47.25
3917;BME280;1973;50.518;7.318;2023-07-13T09:17:53;100933.00;;;23.59;47.67
3917;BME280;1973;50.518;7.318;2023-07-13T09:20:34;100953.19;;;23.61;46.56
3917;BME280;1973;50.518;7.318;2023-07-13T09:23:09;100943.81;;;23.71;46.01
3917;BME280;1973;50.518;7.318;2023-07-13T09:25:37;100940.50;;;23.88;46.18
3917;BME280;1973;50.518;7.318;2023-07-13T09:28:18;100942.66;;;23.96;43.31
3917;BME280;1973;50.518;7.318;2023-07-13T09:31:04;100952.72;;;24.02;42.67
3917;BME280;1973;50.518;7.318;2023-07-13T09:33:32;100942.06;;;23.99;44.28
3917;BME280;1973;50.518;7.318;2023-07-13T09:36:16;100944.03;;;24.22;43.27
3917;BME280;1973;50.518;7.318;2023-07-13T09:38:44;100943.81;;;24.37;44.14
3917;BME280;1973;50.518;7.318;2023-07-13T09:41:39;100942.34;;;24.58;42.13
3917;BME280;1973;50.518;7.318;2023-07-13T09:44:16;100941.66;;;24.29;41.54
3917;BME280;1973;50.518;7.318;2023-07-13T09:46:52;100944.31;;;24.58;41.79
3917;BME280;1973;50.518;7.318;2023-07-13T09:49:25;100933.38;;;24.75;41.47
3917;BME280;1973;50.518;7.318;2023-07-13T09:52:00;100919.97;;;24.86;40.89
3917;BME280;1973;50.518;7.318;2023-07-13T09:54:28;100926.19;;;24.83;41.91
3917;BME280;1973;50.518;7.318;2023-07-13T09:56:58;100921.88;;;24.90;41.61
3917;BME280;1973;50.518;7.318;2023-07-13T09:59:33;100941.09;;;25.02;39.73
3917;BME280;1973;50.518;7.318;2023-07-13T10:02:00;100927.75;;;25.07;40.71
3917;BME280;1973;50.518;7.318;2023-07-13T10:04:31;100917.34;;;25.08;40.13
3917;BME280;1973;50.518;7.318;2023-07-13T10:07:09;100923.25;;;24.93;39.28
3917;BME280;1973;50.518;7.318;2023-07-13T10:09:56;100933.59;;;24.79;40.75
3917;BME280;1973;50.518;7.318;2023-07-13T10:12:24;100952.88;;;24.71;40.45
3917;BME280;1973;50.518;7.318;2023-07-13T10:14:54;100954.16;;;24.60;38.94
3917;BME280;1973;50.518;7.318;2023-07-13T10:17:34;100946.09;;;24.35;39.55
3917;BME280;1973;50.518;7.318;2023-07-13T10:20:03;100943.81;;;24.37;39.49
3917;BME280;1973;50.518;7.318;2023-07-13T10:25:23;100943.66;;;24.85;39.49
3917;BME280;1973;50.518;7.318;2023-07-13T10:27:53;100943.22;;;25.10;39.21
3917;BME280;1973;50.518;7.318;2023-07-13T10:30:24;100926.88;;;25.39;38.94
3917;BME280;1973;50.518;7.318;2023-07-13T10:32:58;100926.94;;;25.66;38.94
3917;BME280;1973;50.518;7.318;2023-07-13T10:35:28;100929.84;;;26.02;38.95
3917;BME280;1973;50.518;7.318;2023-07-13T10:38:07;100955.97;;;25.81;36.92
3917;BME280;1973;50.518;7.318;2023-07-13T10:40:58;100950.75;;;25.60;36.08
3917;BME280;1973;50.518;7.318;2023-07-13T10:43:33;100961.88;;;25.38;37.01
3917;BME280;1973;50.518;7.318;2023-07-13T10:46:05;100938.56;;;25.33;37.74
3917;BME280;1973;50.518;7.318;2023-07-13T10:48:35;100944.06;;;25.56;37.86
3917;BME280;1973;50.518;7.318;2023-07-13T10:51:05;100942.59;;;25.59;37.48
3917;BME280;1973;50.518;7.318;2023-07-13T10:53:35;100945.09;;;25.88;37.62
3917;BME280;1973;50.518;7.318;2023-07-13T10:56:05;100958.50;;;25.96;37.02
3917;BME280;1973;50.518;7.318;2023-07-13T11:03:59;100957.25;;;25.75;37.98
3917;BME280;1973;50.518;7.318;2023-07-13T11:09:19;100984.09;;;25.26;37.74
3917;BME280;1973;50.518;7.318;2023-07-13T11:11:51;100976.53;;;25.22;37.90
3917;BME280;1973;50.518;7.318;2023-07-13T11:16:57;100981.19;;;25.31;36.79
3917;BME280;1973;50.518;7.318;2023-07-13T11:19:26;100968.47;;;25.47;35.87
3917;BME280;1973;50.518;7.318;2023-07-13T11:22:09;100957.19;;;25.47;35.64
3917;BME280;1973;50.518;7.318;2023-07-13T11:24:49;100957.88;;;25.39;36.58
3917;BME280;1973;50.518;7.318;2023-07-13T11:27:35;100968.63;;;25.24;36.13
3917;BME280;1973;50.518;7.318;2023-07-13T11:32:45;100970.47;;;25.14;37.50
3917;BME280;1973;50.518;7.318;2023-07-13T11:35:22;100976.88;;;25.20;37.10
3917;BME280;1973;50.518;7.318;2023-07-13T11:37:50;100980.72;;;25.24;37.03
3917;BME280;1973;50.518;7.318;2023-07-13T11:40:17;100968.84;;;25.27;37.43
3917;BME280;1973;50.518;7.318;2023-07-13T11:42:44;100978.59;;;25.35;37.60
3917;BME280;1973;50.518;7.318;2023-07-13T11:45:21;100965.28;;;25.35;37.17
3917;BME280;1973;50.518;7.318;2023-07-13T11:48:27;100954.00;;;25.22;37.42
3917;BME280;1973;50.518;7.318;2023-07-13T11:51:00;100981.53;;;25.11;37.70
3917;BME280;1973;50.518;7.318;2023-07-13T11:53:36;100973.91;;;25.11;37.87
3917;BME280;1973;50.518;7.318;2023-07-13T11:56:05;100981.94;;;25.04;37.94
3917;BME280;1973;50.518;7.318;2023-07-13T11:58:32;100991.22;;;25.05;37.93
3917;BME280;1973;50.518;7.318;2023-07-13T12:01:01;100981.16;;;24.99;37.45
3917;BME280;1973;50.518;7.318;2023-07-13T12:03:33;100976.75;;;24.93;37.75
3917;BME280;1973;50.518;7.318;2023-07-13T12:06:03;100977.91;;;24.92;37.70
3917;BME280;1973;50.518;7.318;2023-07-13T12:08:38;100984.59;;;24.96;37.46
3917;BME280;1973;50.518;7.318;2023-07-13T12:11:15;100985.63;;;24.86;37.19
3917;BME280;1973;50.518;7.318;2023-07-13T12:13:44;100979.59;;;24.93;37.95
3917;BME280;1973;50.518;7.318;2023-07-13T12:16:15;100989.56;;;24.85;37.77
3917;BME280;1973;50.518;7.318;2023-07-13T12:18:43;100995.56;;;24.79;38.12
3917;BME280;1973;50.518;7.318;2023-07-13T12:21:17;100994.28;;;24.71;37.86
3917;BME280;1973;50.518;7.318;2023-07-13T12:23:48;101009.88;;;24.63;38.05
3917;BME280;1973;50.518;7.318;2023-07-13T12:26:17;100979.81;;;24.59;38.31
3917;BME280;1973;50.518;7.318;2023-07-13T12:28:52;100999.50;;;24.59;38.58
3917;BME280;1973;50.518;7.318;2023-07-13T12:31:29;100994.09;;;24.62;38.30
3917;BME280;1973;50.518;7.318;2023-07-13T12:34:13;100992.97;;;24.63;37.35
3917;BME280;1973;50.518;7.318;2023-07-13T12:41:43;101000.84;;;24.85;37.90
3917;BME280;1973;50.518;7.318;2023-07-13T12:44:14;101005.22;;;24.91;37.89
3917;BME280;1973;50.518;7.318;2023-07-13T12:46:54;101006.84;;;24.97;37.62
3917;BME280;1973;50.518;7.318;2023-07-13T12:49:31;100995.69;;;25.06;37.16
3917;BME280;1973;50.518;7.318;2023-07-13T12:52:04;100995.69;;;25.06;37.28
3917;BME280;1973;50.518;7.318;2023-07-13T12:54:31;101010.34;;;25.08;37.26
3917;BME280;1973;50.518;7.318;2023-07-13T12:56:59;101021.50;;;25.13;37.40
3917;BME280;1973;50.518;7.318;2023-07-13T12:59:30;101022.06;;;25.15;36.75
3917;BME280;1973;50.518;7.318;2023-07-13T13:01:59;101011.00;;;25.18;37.44
3917;BME280;1973;50.518;7.318;2023-07-13T13:04:26;101012.06;;;25.23;37.36
3917;BME280;1973;50.518;7.318;2023-07-13T13:07:04;101004.88;;;25.30;36.77
3917;BME280;1973;50.518;7.318;2023-07-13T13:09:32;101005.50;;;25.27;37.53
3917;BME280;1973;50.518;7.318;2023-07-13T13:12:00;101008.09;;;25.24;37.60
3917;BME280;1973;50.518;7.318;2023-07-13T13:14:27;101014.53;;;25.24;37.66
3917;BME280;1973;50.518;7.318;2023-07-13T13:16:53;101015.16;;;25.21;37.48
3917;BME280;1973;50.518;7.318;2023-07-13T13:19:26;101009.53;;;25.21;37.54
3917;BME280;1973;50.518;7.318;2023-07-13T13:21:55;101014.47;;;25.29;37.77
3917;BME280;1973;50.518;7.318;2023-07-13T13:24:25;101010.94;;;25.37;38.60
3917;BME280;1973;50.518;7.318;2023-07-13T13:26:53;101007.94;;;25.47;38.85
3917;BME280;1973;50.518;7.318;2023-07-13T13:29:23;101011.56;;;25.53;38.76
3917;BME280;1973;50.518;7.318;2023-07-13T13:31:52;101010.47;;;25.49;38.64
3917;BME280;1973;50.518;7.318;2023-07-13T13:34:20;101007.94;;;25.47;38.82
3917;BME280;1973;50.518;7.318;2023-07-13T13:36:50;101004.75;;;25.35;38.74
3917;BME280;1973;50.518;7.318;2023-07-13T13:39:22;101004.03;;;25.30;38.58
3917;BME280;1973;50.518;7.318;2023-07-13T13:41:50;101004.34;;;25.28;38.91
3917;BME280;1973;50.518;7.318;2023-07-13T13:44:18;101006.63;;;25.26;39.43
3917;BME280;1973;50.518;7.318;2023-07-13T13:46:51;100998.47;;;25.25;38.86
3917;BME280;1973;50.518;7.318;2023-07-13T13:49:23;100997.75;;;25.19;38.78
3917;BME280;1973;50.518;7.318;2023-07-13T13:51:51;101011.00;;;25.18;39.56
3917;BME280;1973;50.518;7.318;2023-07-13T13:54:19;101007.88;;;25.20;39.23
3917;BME280;1973;50.518;7.318;2023-07-13T13:56:48;101012.56;;;25.25;39.08
3917;BME280;1973;50.518;7.318;2023-07-13T13:59:15;101004.34;;;25.28;39.27
3917;BME280;1973;50.518;7.318;2023-07-13T14:01:43;101007.50;;;25.40;39.44
3917;BME280;1973;50.518;7.318;2023-07-13T14:04:21;100988.75;;;25.49;39.48
3917;BME280;1973;50.518;7.318;2023-07-13T14:06:48;100996.50;;;25.57;39.51